Time;durP1;ratioP1;P1;durP2;ratioP2;P2;SDS_P1;SDS_P2;PMS_P1;PMS_P2;Temp;Humidity;BMP_temperature;BMP_pressure;BME280_temperature;BME280_humidity;BME280_pressure;Samples;Min_cycle;Max_cycle;Signal;HPM_P1;HPM_P2
2022/11/30 00:01:23;;;;;;;1.30;1.20;;;;;;;5.36;100.00;94579.28;5072885;28;20226;-62
2022/11/30 00:03:52;;;;;;;2.73;1.33;;;;;;;5.31;100.00;94577.09;5073068;28;20199;-63
2022/11/30 00:06:21;;;;;;;2.10;1.23;;;;;;;5.32;100.00;94585.44;5072973;28;20712;-64
2022/11/30 00:08:48;;;;;;;2.63;1.40;;;;;;;5.33;100.00;94582.84;5071783;28;20206;-59
2022/11/30 00:11:19;;;;;;;1.70;1.27;;;;;;;5.42;100.00;94591.50;5080775;22;20575;-59
2022/11/30 00:14:04;;;;;;;1.70;1.20;;;;;;;5.40;100.00;94595.81;5054983;28;20204;-59
2022/11/30 00:16:29;;;;;;;2.70;1.37;;;;;;;5.37;100.00;94596.03;5073284;28;20196;-58
2022/11/30 00:18:55;;;;;;;1.07;1.00;;;;;;;5.32;100.00;94588.78;5072812;28;20200;-60
2022/11/30 00:21:20;;;;;;;1.20;1.10;;;;;;;5.29;100.00;94585.66;5073134;28;20203;-59
2022/11/30 00:23:46;;;;;;;2.10;1.27;;;;;;;5.30;100.00;94592.28;5072578;28;20192;-59
2022/11/30 00:26:14;;;;;;;2.57;1.30;;;;;;;5.37;100.00;94596.03;5072814;28;20303;-64
2022/11/30 00:28:41;;;;;;;1.37;1.07;;;;;;;5.24;100.00;94598.53;5072672;28;20192;-64
2022/11/30 00:31:09;;;;;;;2.50;1.50;;;;;;;5.46;100.00;94611.34;5072855;28;20723;-61
2022/11/30 00:33:36;;;;;;;1.40;1.03;;;;;;;5.40;100.00;94601.69;5072434;28;20193;-60
2022/11/30 00:36:04;;;;;;;1.57;1.33;;;;;;;5.36;100.00;94604.50;5072431;28;20666;-60
2022/11/30 00:38:33;;;;;;;0.90;0.77;;;;;;;5.21;100.00;94600.47;5072425;28;20187;-64
2022/11/30 00:40:59;;;;;;;1.70;1.37;;;;;;;5.29;100.00;94595.75;5072707;28;20232;-63
2022/11/30 00:43:25;;;;;;;2.40;1.40;;;;;;;5.32;100.00;94598.03;5072378;28;20199;-61
2022/11/30 00:45:51;;;;;;;2.43;1.20;;;;;;;5.53;100.00;94602.50;5054343;28;20322;-63
2022/11/30 00:48:16;;;;;;;1.83;1.20;;;;;;;5.48;100.00;94602.00;5072393;28;20194;-63
2022/11/30 00:50:41;;;;;;;2.00;1.30;;;;;;;5.42;100.00;94588.97;5072546;28;20266;-63
2022/11/30 00:53:07;;;;;;;1.90;1.37;;;;;;;5.41;100.00;94595.75;5072268;28;20194;-64
2022/11/30 00:55:33;;;;;;;1.37;1.27;;;;;;;5.25;100.00;94589.28;5053850;28;20219;-64
2022/11/30 00:58:00;;;;;;;1.00;0.87;;;;;;;5.44;100.00;94595.53;5079012;22;20229;-60
2022/11/30 01:00:26;;;;;;;1.53;1.00;;;;;;;5.62;100.00;94606.09;5072318;28;20302;-61
2022/11/30 01:02:55;;;;;;;2.30;1.17;;;;;;;5.43;100.00;94595.63;5072077;28;20295;-62
2022/11/30 01:05:21;;;;;;;1.63;1.07;;;;;;;5.47;100.00;94592.00;5071915;28;20199;-62
2022/11/30 01:07:47;;;;;;;1.50;1.20;;;;;;;5.40;100.00;94583.22;5072029;28;20250;-62
2022/11/30 01:10:13;;;;;;;1.00;1.00;;;;;;;5.43;100.00;94590.59;5054025;28;20687;-62
2022/11/30 01:12:38;;;;;;;1.30;1.20;;;;;;;5.47;100.00;94584.44;5072006;28;20215;-63
2022/11/30 01:15:04;;;;;;;3.37;2.77;;;;;;;5.34;100.00;94586.16;5071894;28;20215;-64
2022/11/30 01:17:29;;;;;;;1.63;1.40;;;;;;;5.26;100.00;94585.84;5071888;28;20192;-63
2022/11/30 01:19:55;;;;;;;2.00;1.70;;;;;;;5.36;100.00;94592.72;5071673;28;20227;-65
2022/11/30 01:22:20;;;;;;;5.27;1.23;;;;;;;5.33;100.00;94590.41;5071869;28;20683;-63
2022/11/30 01:24:46;;;;;;;1.30;1.20;;;;;;;5.42;100.00;94589.78;5053800;28;20680;-58
2022/11/30 01:27:11;;;;;;;2.37;1.10;;;;;;;5.46;100.00;94596.25;5071684;28;20303;-59
2022/11/30 01:29:36;;;;;;;1.07;1.03;;;;;;;5.52;100.00;94592.50;5071543;28;20219;-64
2022/11/30 01:32:02;;;;;;;0.87;0.87;;;;;;;5.63;100.00;94601.00;5072078;28;20231;-62
2022/11/30 01:34:27;;;;;;;1.10;1.00;;;;;;;5.59;100.00;94604.63;5071569;28;20218;-59
2022/11/30 01:36:53;;;;;;;1.10;1.00;;;;;;;5.56;100.00;94592.19;5070719;28;20351;-59
2022/11/30 01:39:18;;;;;;;1.23;1.00;;;;;;;5.49;100.00;94592.72;5071517;28;20681;-63
2022/11/30 01:41:44;;;;;;;1.30;1.20;;;;;;;5.58;100.00;94602.19;5071610;28;20595;-59
2022/11/30 01:44:15;;;;;;;1.03;0.90;;;;;;;5.48;100.00;94596.13;5071310;28;20262;-63
2022/11/30 01:46:48;;;;;;;1.10;1.00;;;;;;;5.53;100.00;94601.69;5071279;28;20208;-62
2022/11/30 01:49:19;;;;;;;1.73;1.13;;;;;;;5.46;100.00;94591.19;5071217;28;20623;-64
2022/11/30 01:51:56;;;;;;;1.10;1.00;;;;;;;5.45;100.00;94593.81;5071355;28;20249;-62
2022/11/30 01:54:27;;;;;;;1.47;1.20;;;;;;;5.58;100.00;94602.19;5071411;28;20204;-63
2022/11/30 01:57:02;;;;;;;1.43;1.30;;;;;;;5.45;100.00;94588.78;5072002;28;20195;-64
2022/11/30 01:59:28;;;;;;;2.63;1.30;;;;;;;5.33;100.00;94584.56;5071225;28;20294;-59
2022/11/30 02:01:54;;;;;;;1.43;1.20;;;;;;;5.27;100.00;94580.72;5053323;28;20287;-62
2022/11/30 02:04:31;;;;;;;1.10;1.03;;;;;;;5.33;100.00;94572.75;5071070;28;20238;-63
2022/11/30 02:06:58;;;;;;;3.43;1.20;;;;;;;5.27;100.00;94570.66;5070982;28;20224;-63
2022/11/30 02:09:25;;;;;;;5.30;0.90;;;;;;;5.40;100.00;94578.19;5069575;28;20212;-62
2022/11/30 02:11:52;;;;;;;3.80;1.50;;;;;;;5.34;100.00;94579.41;5071142;28;20282;-62
2022/11/30 02:14:26;;;;;;;1.37;1.10;;;;;;;5.44;100.00;94582.13;5070820;28;20206;-62
2022/11/30 02:17:12;;;;;;;1.40;1.20;;;;;;;5.37;100.00;94574.19;5071125;28;20208;-63
2022/11/30 02:19:37;;;;;;;1.40;1.30;;;;;;;5.27;100.00;94574.88;5070420;28;20224;-63
2022/11/30 02:22:38;;;;;;;1.87;1.03;;;;;;;5.25;100.00;94572.47;5071069;28;20206;-63
2022/11/30 02:25:15;;;;;;;1.53;1.33;;;;;;;5.37;100.00;94579.22;5052441;28;20276;-63
2022/11/30 02:28:02;;;;;;;2.17;1.53;;;;;;;5.22;100.00;94566.78;5070734;28;20236;-63
2022/11/30 02:30:31;;;;;;;2.83;1.30;;;;;;;5.16;100.00;94567.19;5070769;28;20243;-63
2022/11/30 02:33:01;;;;;;;2.93;1.27;;;;;;;5.33;100.00;94566.91;5070801;28;20183;-63
2022/11/30 02:35:34;;;;;;;1.40;1.30;;;;;;;5.23;100.00;94568.41;5070738;28;20208;-60
2022/11/30 02:38:02;;;;;;;2.30;1.40;;;;;;;5.32;100.00;94571.13;5070534;28;20192;-59
2022/11/30 02:40:28;;;;;;;1.77;1.10;;;;;;;5.38;100.00;94570.72;5070540;28;20236;-60
2022/11/30 02:42:56;;;;;;;1.30;1.20;;;;;;;5.43;100.00;94570.44;5070667;28;20570;-60
2022/11/30 02:45:45;;;;;;;1.70;1.10;;;;;;;5.56;100.00;94579.59;5070326;28;20226;-59
2022/11/30 02:48:14;;;;;;;1.33;1.20;;;;;;;5.42;100.00;94573.84;5070686;28;20274;-63
2022/11/30 02:50:46;;;;;;;1.07;0.93;;;;;;;5.51;100.00;94575.78;5070320;28;20250;-64
2022/11/30 02:53:12;;;;;;;1.27;1.10;;;;;;;5.44;100.00;94579.59;5070352;28;20210;-63
2022/11/30 02:55:38;;;;;;;0.90;0.90;;;;;;;5.46;100.00;94576.06;5070457;28;20708;-63
2022/11/30 02:58:04;;;;;;;1.30;1.00;;;;;;;5.45;100.00;94573.66;5052489;28;20248;-64
2022/11/30 03:00:30;;;;;;;1.70;1.30;;;;;;;5.60;100.00;94587.75;5070239;28;20303;-63
2022/11/30 03:02:55;;;;;;;1.13;0.90;;;;;;;5.50;100.00;94581.72;5070237;28;20204;-61
2022/11/30 03:05:21;;;;;;;1.37;1.27;;;;;;;5.53;100.00;94577.28;5070002;28;20231;-62
2022/11/30 03:07:46;;;;;;;1.10;1.00;;;;;;;5.46;100.00;94567.69;5052216;28;20562;-63
2022/11/30 03:10:12;;;;;;;1.23;1.00;;;;;;;5.34;100.00;94566.00;5070161;28;20208;-63
2022/11/30 03:12:37;;;;;;;1.30;1.20;;;;;;;5.35;100.00;94568.44;5070263;28;20180;-60
2022/11/30 03:15:04;;;;;;;2.53;1.10;;;;;;;5.39;100.00;94574.06;5052066;28;20223;-63
2022/11/30 03:17:29;;;;;;;1.53;1.43;;;;;;;5.36;100.00;94577.59;5069890;28;20192;-59
2022/11/30 03:19:55;;;;;;;1.60;1.27;;;;;;;5.38;100.00;94563.16;5078848;22;20222;-62
2022/11/30 03:22:21;;;;;;;1.83;0.93;;;;;;;5.49;100.00;94583.44;5073333;28;20192;-60
2022/11/30 03:24:46;;;;;;;1.20;1.10;;;;;;;5.28;100.00;94579.00;5055396;28;20268;-60
2022/11/30 03:27:11;;;;;;;4.43;1.27;;;;;;;5.20;100.00;94573.66;5073637;28;20245;-62
2022/11/30 03:29:38;;;;;;;2.93;1.70;;;;;;;5.22;100.00;94580.19;5073351;28;20215;-62
2022/11/30 03:32:04;;;;;;;3.03;2.10;;;;;;;5.30;100.00;94577.19;5073512;28;20203;-58
2022/11/30 03:34:30;;;;;;;6.33;2.73;;;;;;;5.24;100.00;94572.53;5073650;28;20213;-63
2022/11/30 03:36:56;;;;;;;6.97;3.20;;;;;;;5.21;100.00;94576.09;5073329;28;20238;-62
2022/11/30 03:39:28;;;;;;;6.73;2.90;;;;;;;5.22;100.00;94571.81;5073463;28;20218;-62
2022/11/30 03:41:53;;;;;;;7.23;3.70;;;;;;;5.24;100.00;94572.53;5073199;28;20179;-64
2022/11/30 03:44:19;;;;;;;7.87;4.33;;;;;;;5.15;100.00;94576.47;5055206;28;20373;-63
2022/11/30 03:46:44;;;;;;;15.07;8.97;;;;;;;5.19;100.00;94572.84;5055190;28;20207;-62
2022/11/30 03:49:10;;;;;;;3.23;2.43;;;;;;;5.16;100.00;94577.28;5055089;28;20602;-59
2022/11/30 03:51:35;;;;;;;1.60;1.50;;;;;;;5.23;100.00;94581.84;5073312;28;20188;-59
2022/11/30 03:54:01;;;;;;;2.87;1.00;;;;;;;5.06;100.00;94579.59;5073169;28;20190;-60
2022/11/30 03:56:26;;;;;;;0.80;0.80;;;;;;;5.19;100.00;94582.94;5055158;28;20605;-61
2022/11/30 03:58:52;;;;;;;1.20;1.10;;;;;;;5.11;100.00;94578.38;5055073;28;20195;-62
2022/11/30 04:01:21;;;;;;;0.83;0.77;;;;;;;5.06;100.00;94582.09;5073095;28;20573;-60
2022/11/30 04:03:47;;;;;;;0.70;0.70;;;;;;;5.10;100.00;94583.50;5054962;28;20629;-62
2022/11/30 04:06:13;;;;;;;1.33;0.80;;;;;;;5.17;100.00;94587.28;5072777;28;20211;-62
2022/11/30 04:08:39;;;;;;;2.53;0.70;;;;;;;5.30;100.00;94590.59;5072968;28;20263;-61
2022/11/30 04:11:05;;;;;;;0.70;0.70;;;;;;;5.22;100.00;94589.47;5072933;28;20211;-64
2022/11/30 04:13:32;;;;;;;2.70;0.80;;;;;;;5.16;100.00;94588.16;5072974;28;20201;-60
2022/11/30 04:15:58;;;;;;;0.50;0.50;;;;;;;5.04;100.00;94584.72;5072943;28;20688;-62
2022/11/30 04:18:25;;;;;;;1.97;0.90;;;;;;;5.08;100.00;94590.38;5072766;28;20185;-62
2022/11/30 04:20:52;;;;;;;0.87;0.60;;;;;;;5.08;100.00;94590.38;5054652;28;20204;-62
2022/11/30 04:23:19;;;;;;;0.97;0.83;;;;;;;5.07;100.00;94584.50;5072696;28;20679;-63
2022/11/30 04:25:46;;;;;;;1.50;0.70;;;;;;;5.13;100.00;94582.53;5079758;22;20307;-58
2022/11/30 04:28:13;;;;;;;0.83;0.50;;;;;;;5.11;100.00;94596.00;5072650;28;20678;-60
2022/11/30 04:30:39;;;;;;;1.60;0.40;;;;;;;5.12;100.00;94594.31;5053857;28;20219;-64
2022/11/30 04:33:04;;;;;;;0.80;0.60;;;;;;;5.16;100.00;94593.19;5071999;28;20191;-63
2022/11/30 04:35:30;;;;;;;0.70;0.60;;;;;;;5.17;100.00;94601.56;5072858;28;20262;-64
2022/11/30 04:37:55;;;;;;;2.10;1.40;;;;;;;5.13;100.00;94599.22;5054520;28;20192;-64
2022/11/30 04:40:21;;;;;;;3.50;1.90;;;;;;;5.11;100.00;94590.97;5072597;28;20384;-61
2022/11/30 04:42:46;;;;;;;0.70;0.70;;;;;;;5.17;100.00;94588.97;5054294;28;20201;-62
2022/11/30 04:45:12;;;;;;;0.83;0.70;;;;;;;5.11;100.00;94585.13;5072596;28;20219;-59
2022/11/30 04:47:38;;;;;;;2.13;0.90;;;;;;;5.16;100.00;94588.16;5054111;28;20219;-62
2022/11/30 04:50:06;;;;;;;2.00;0.60;;;;;;;5.09;100.00;94597.81;5070393;28;20217;-63
2022/11/30 04:52:32;;;;;;;1.70;0.70;;;;;;;5.01;100.00;94589.94;5052549;28;20193;-61
2022/11/30 04:54:57;;;;;;;0.70;0.70;;;;;;;4.97;100.00;94588.53;5054219;28;20717;-59
2022/11/30 04:57:23;;;;;;;2.53;1.10;;;;;;;4.98;100.00;94596.91;5054340;28;20197;-63
2022/11/30 04:59:48;;;;;;;1.70;0.57;;;;;;;4.95;100.00;94597.06;5072227;28;20208;-63
2022/11/30 05:02:14;;;;;;;1.23;0.80;;;;;;;4.89;100.00;94600.81;5053957;28;20706;-63
2022/11/30 05:04:39;;;;;;;0.60;0.60;;;;;;;4.96;100.00;94603.75;5072057;28;20582;-63
2022/11/30 05:07:05;;;;;;;1.00;0.83;;;;;;;4.89;100.00;94602.50;5071863;28;20206;-64
2022/11/30 05:09:31;;;;;;;2.73;0.70;;;;;;;4.87;100.00;94595.06;5072245;28;20257;-61
2022/11/30 05:11:56;;;;;;;0.83;0.73;;;;;;;4.90;100.00;94594.06;5071719;28;20193;-63
2022/11/30 05:14:22;;;;;;;2.53;0.90;;;;;;;4.92;100.00;94604.84;5052806;28;20382;-63
2022/11/30 05:16:47;;;;;;;1.03;0.70;;;;;;;4.85;100.00;94604.41;5070509;28;20681;-62
2022/11/30 05:19:13;;;;;;;1.20;1.10;;;;;;;4.89;100.00;94615.91;5071939;28;20307;-64
2022/11/30 05:21:39;;;;;;;1.37;1.00;;;;;;;4.84;100.00;94607.84;5071909;28;20191;-65
2022/11/30 05:24:05;;;;;;;1.47;1.10;;;;;;;4.84;100.00;94607.84;5071715;28;20208;-63
2022/11/30 05:26:30;;;;;;;1.23;1.00;;;;;;;4.88;100.00;94613.50;5071694;28;20729;-62
2022/11/30 05:28:56;;;;;;;2.20;0.87;;;;;;;4.70;100.00;94610.44;5071580;28;20189;-63
2022/11/30 05:31:21;;;;;;;1.20;1.10;;;;;;;4.75;100.00;94610.94;5071619;28;20247;-60
2022/11/30 05:33:50;;;;;;;1.30;1.20;;;;;;;4.86;100.00;94612.78;5071532;28;20179;-60
2022/11/30 05:36:16;;;;;;;1.53;0.97;;;;;;;4.93;100.00;94609.78;5071585;28;20185;-64
2022/11/30 05:38:42;;;;;;;0.77;0.77;;;;;;;4.94;100.00;94613.94;5071591;28;20305;-61
2022/11/30 05:41:08;;;;;;;3.30;1.17;;;;;;;4.89;100.00;94615.91;5053727;28;20196;-64
2022/11/30 05:43:33;;;;;;;1.83;1.00;;;;;;;4.73;100.00;94620.31;5053218;28;20621;-63
2022/11/30 05:46:03;;;;;;;1.83;1.30;;;;;;;4.98;100.00;94617.88;5071037;28;20697;-59
2022/11/30 05:48:29;;;;;;;2.17;1.00;;;;;;;4.80;100.00;94619.03;5071614;28;20183;-60
2022/11/30 05:50:55;;;;;;;1.20;1.10;;;;;;;4.83;100.00;94618.00;5071516;28;20219;-60
2022/11/30 05:53:20;;;;;;;2.27;1.30;;;;;;;4.94;100.00;94626.53;5071467;28;20184;-62
2022/11/30 05:55:46;;;;;;;6.90;1.47;;;;;;;4.91;100.00;94625.88;5053395;28;20223;-63
2022/11/30 05:58:11;;;;;;;1.30;1.20;;;;;;;4.83;100.00;94628.91;5071370;28;20180;-63
2022/11/30 06:00:37;;;;;;;1.50;1.07;;;;;;;5.00;100.00;94623.63;5070901;28;20223;-63
2022/11/30 06:03:02;;;;;;;2.13;1.47;;;;;;;5.34;100.00;94636.56;5053287;28;20194;-60
2022/11/30 06:05:28;;;;;;;3.07;2.00;;;;;;;5.28;100.00;94641.97;5071171;28;20293;-65
2022/11/30 06:07:53;;;;;;;3.00;2.03;;;;;;;5.49;100.00;94659.06;5051997;28;20573;-63
2022/11/30 06:10:19;;;;;;;2.87;1.23;;;;;;;5.60;100.00;94663.38;5070794;28;20226;-63
2022/11/30 06:12:45;;;;;;;1.67;1.20;;;;;;;5.66;100.00;94668.84;5071249;28;20192;-60
2022/11/30 06:15:11;;;;;;;3.37;1.10;;;;;;;5.61;100.00;94658.28;5070849;28;20292;-64
2022/11/30 06:17:36;;;;;;;1.57;1.00;;;;;;;5.60;100.00;94659.16;5070614;28;20284;-60
2022/11/30 06:20:04;;;;;;;2.63;0.90;;;;;;;5.53;100.00;94659.66;5052767;28;20596;-65
2022/11/30 06:22:30;;;;;;;4.57;0.90;;;;;;;5.59;100.00;94669.34;5069404;28;20193;-61
2022/11/30 06:24:55;;;;;;;1.30;1.00;;;;;;;5.58;100.00;94671.06;5070074;28;20216;-63
2022/11/30 06:27:21;;;;;;;1.27;1.17;;;;;;;5.52;100.00;94663.09;5070887;28;20238;-63
2022/11/30 06:29:46;;;;;;;3.03;1.13;;;;;;;5.44;100.00;94657.72;5070853;28;20638;-59
2022/11/30 06:32:12;;;;;;;1.80;0.87;;;;;;;5.48;100.00;94661.66;5070912;28;20238;-64
2022/11/30 06:34:37;;;;;;;1.10;1.00;;;;;;;5.38;100.00;94653.09;5070951;28;20251;-61
2022/11/30 06:37:03;;;;;;;1.90;0.93;;;;;;;5.57;100.00;94669.47;5070979;28;20195;-66
2022/11/30 06:39:28;;;;;;;1.97;1.17;;;;;;;5.50;100.00;94662.38;5070785;28;20622;-63
2022/11/30 06:41:54;;;;;;;1.87;1.00;;;;;;;5.64;100.00;94674.88;5068476;28;20192;-62
2022/11/30 06:44:19;;;;;;;4.37;1.23;;;;;;;5.67;100.00;94684.78;5068993;28;20210;-63
2022/11/30 06:46:45;;;;;;;1.40;0.80;;;;;;;5.59;100.00;94682.78;5070807;28;20211;-63
2022/11/30 06:49:10;;;;;;;0.80;0.80;;;;;;;5.49;100.00;94671.66;5070589;28;20700;-60
2022/11/30 06:51:38;;;;;;;1.93;1.17;;;;;;;5.35;100.00;94658.34;5071077;28;20192;-64
2022/11/30 06:54:04;;;;;;;2.90;1.20;;;;;;;5.36;100.00;94658.22;5070636;28;20206;-65
2022/11/30 06:56:30;;;;;;;1.13;1.03;;;;;;;5.50;100.00;94667.41;5074182;28;20193;-62
2022/11/30 06:58:55;;;;;;;2.40;1.20;;;;;;;5.46;100.00;94666.81;5074233;28;20677;-65
2022/11/30 07:01:21;;;;;;;3.87;1.50;;;;;;;5.61;100.00;94672.59;5074183;28;20196;-64
2022/11/30 07:03:46;;;;;;;2.07;1.20;;;;;;;5.65;100.00;94671.47;5074006;28;20186;-63
2022/11/30 07:06:13;;;;;;;1.30;1.20;;;;;;;5.55;100.00;94680.53;5073934;28;20219;-64
2022/11/30 07:08:40;;;;;;;3.17;1.57;;;;;;;5.47;100.00;94670.16;5074065;28;20263;-63
2022/11/30 07:11:07;;;;;;;3.07;1.50;;;;;;;5.49;100.00;94673.38;5055866;28;20215;-64
2022/11/30 07:13:39;;;;;;;3.00;0.93;;;;;;;5.55;100.00;94665.41;5055972;28;20192;-62
2022/11/30 07:16:07;;;;;;;1.77;1.37;;;;;;;5.63;100.00;94678.34;5054139;28;20757;-63
2022/11/30 07:18:33;;;;;;;2.67;1.60;;;;;;;5.58;100.00;94671.06;5054820;28;20662;-60
2022/11/30 07:21:00;;;;;;;1.57;1.40;;;;;;;5.70;100.00;94666.94;5055903;28;20368;-62
2022/11/30 07:26:10;;;;;;;2.87;1.90;;;;;;;5.76;100.00;94684.19;5073842;28;20355;-65
2022/11/30 07:28:38;;;;;;;2.50;1.73;;;;;;;5.70;100.00;94677.81;5073527;28;20668;-64
2022/11/30 07:31:18;;;;;;;3.20;2.00;;;;;;;5.59;100.00;94674.41;5073398;28;20212;-61
2022/11/30 07:33:43;;;;;;;1.80;1.33;;;;;;;5.58;100.00;94667.72;5073354;28;20578;-64
2022/11/30 07:36:09;;;;;;;2.87;1.40;;;;;;;5.51;100.00;94664.00;5073980;28;20627;-65
2022/11/30 07:38:35;;;;;;;1.80;1.27;;;;;;;5.68;100.00;94674.59;5073398;28;20194;-63
2022/11/30 07:41:00;;;;;;;2.60;1.57;;;;;;;5.64;100.00;94672.38;5073717;28;20295;-63
2022/11/30 07:43:27;;;;;;;1.70;1.60;;;;;;;5.38;100.00;94650.56;5073257;28;20188;-64
2022/11/30 07:45:53;;;;;;;1.87;1.43;;;;;;;5.34;100.00;94656.72;5073472;28;20223;-64
2022/11/30 07:48:19;;;;;;;2.07;1.60;;;;;;;5.36;100.00;94662.47;5073500;28;20195;-64
2022/11/30 07:50:45;;;;;;;2.00;1.20;;;;;;;5.45;100.00;94654.31;5073279;28;20602;-63
2022/11/30 07:53:11;;;;;;;3.80;2.33;;;;;;;5.38;100.00;94653.91;5073000;28;20220;-65
2022/11/30 07:55:36;;;;;;;3.00;1.47;;;;;;;5.20;100.00;94651.75;5072740;28;20215;-60
2022/11/30 07:58:03;;;;;;;1.87;1.20;;;;;;;5.26;100.00;94653.88;5070997;28;20195;-64
2022/11/30 08:00:28;;;;;;;3.20;2.00;;;;;;;5.24;100.00;94641.38;5052891;28;20215;-60
2022/11/30 08:02:53;;;;;;;3.57;1.53;;;;;;;5.33;100.00;94655.94;5072736;28;20192;-62
2022/11/30 08:05:19;;;;;;;2.93;1.57;;;;;;;5.40;100.00;94657.13;5073348;28;20257;-62
2022/11/30 08:07:50;;;;;;;4.17;1.20;;;;;;;5.36;100.00;94659.94;5055072;28;20212;-63
2022/11/30 08:10:15;;;;;;;1.87;1.40;;;;;;;5.34;100.00;94654.19;5073285;28;20319;-60
2022/11/30 08:12:41;;;;;;;7.43;4.77;;;;;;;5.33;100.00;94647.56;5073140;28;20548;-59
2022/11/30 08:15:09;;;;;;;1.47;1.30;;;;;;;5.39;100.00;94654.72;5072822;28;20212;-63
2022/11/30 08:17:35;;;;;;;2.00;1.50;;;;;;;5.38;100.00;94665.69;5072934;28;20684;-63
2022/11/30 08:20:00;;;;;;;3.47;1.43;;;;;;;5.44;100.00;94662.78;5072981;28;20595;-64
2022/11/30 08:22:26;;;;;;;1.73;1.43;;;;;;;5.46;100.00;94663.47;5072701;28;20290;-64
2022/11/30 08:24:52;;;;;;;2.50;1.33;;;;;;;5.63;100.00;94638.81;5072990;28;20215;-64
2022/11/30 08:27:18;;;;;;;1.27;1.17;;;;;;;5.90;100.00;94656.34;5072765;28;20688;-63
2022/11/30 08:29:44;;;;;;;3.23;1.87;;;;;;;5.69;100.00;94663.63;5072777;28;20212;-64
2022/11/30 08:32:09;;;;;;;2.00;1.37;;;;;;;5.74;100.00;94666.63;5072509;28;20188;-63
2022/11/30 08:34:35;;;;;;;1.50;1.30;;;;;;;5.92;100.00;94692.38;5072525;28;20211;-63
2022/11/30 08:37:00;;;;;;;1.20;1.10;;;;;;;5.96;100.00;94703.88;5072500;28;20206;-64
2022/11/30 08:39:27;;;;;;;1.50;1.37;;;;;;;5.99;100.00;94711.25;5072592;28;20216;-63
2022/11/30 08:41:52;;;;;;;2.43;1.17;;;;;;;5.79;100.00;94692.38;5072594;28;20241;-64
2022/11/30 08:44:18;;;;;;;2.13;1.37;;;;;;;5.92;100.00;94682.28;5072537;28;20212;-63
2022/11/30 08:46:43;;;;;;;0.77;0.77;;;;;;;6.06;100.00;94687.22;5072538;28;20208;-65
2022/11/30 08:49:09;;;;;;;1.77;1.00;;;;;;;5.98;100.00;94686.94;5054346;28;20243;-64
2022/11/30 08:51:34;;;;;;;1.13;0.80;;;;;;;5.83;100.00;94682.88;5072391;28;20274;-64
2022/11/30 08:54:00;;;;;;;3.37;1.10;;;;;;;5.85;100.00;94692.00;5072392;28;20271;-63
2022/11/30 08:56:25;;;;;;;1.97;1.40;;;;;;;5.84;100.00;94697.13;5072493;28;20195;-61
2022/11/30 08:58:51;;;;;;;1.87;1.10;;;;;;;5.83;100.00;94677.84;5054314;28;20190;-66
2022/11/30 09:01:25;;;;;;;2.63;1.10;;;;;;;5.72;100.00;94681.06;5072235;28;20283;-61
2022/11/30 09:03:54;;;;;;;1.80;1.27;;;;;;;5.74;100.00;94670.84;5053186;28;20662;-64
2022/11/30 09:06:25;;;;;;;3.13;1.30;;;;;;;5.63;100.00;94650.59;5072536;28;20219;-63
2022/11/30 09:08:54;;;;;;;2.60;1.37;;;;;;;5.68;100.00;94656.13;5072201;28;20215;-63
2022/11/30 09:11:21;;;;;;;1.37;0.90;;;;;;;5.71;100.00;94663.50;5072390;28;20231;-64
2022/11/30 09:13:47;;;;;;;2.57;1.17;;;;;;;5.84;100.00;94671.91;5071970;28;20192;-65
2022/11/30 09:16:14;;;;;;;3.80;1.67;;;;;;;5.87;100.00;94666.66;5072085;28;20674;-64
2022/11/30 09:18:40;;;;;;;2.57;1.43;;;;;;;5.82;100.00;94671.16;5071320;28;20192;-65
2022/11/30 09:21:08;;;;;;;1.50;1.23;;;;;;;5.69;100.00;94667.84;5071829;28;20212;-65
2022/11/30 09:23:34;;;;;;;2.20;1.40;;;;;;;5.75;100.00;94668.25;5071856;28;20236;-64
2022/11/30 09:26:04;;;;;;;2.33;1.63;;;;;;;5.74;100.00;94675.91;5072126;28;20236;-65
2022/11/30 09:28:30;;;;;;;4.63;1.60;;;;;;;5.74;100.00;94664.09;5071797;28;20725;-64
2022/11/30 09:31:05;;;;;;;4.00;1.70;;;;;;;5.93;100.00;94671.31;5053927;28;20243;-65
2022/11/30 09:33:32;;;;;;;2.67;1.70;;;;;;;5.95;100.00;94674.53;5071834;28;20191;-64
2022/11/30 09:36:06;;;;;;;1.50;1.33;;;;;;;5.90;100.00;94671.50;5072003;28;20208;-60
2022/11/30 09:38:31;;;;;;;1.87;1.40;;;;;;;5.91;100.00;94670.59;5071744;28;20184;-60
2022/11/30 09:40:59;;;;;;;2.03;1.23;;;;;;;5.84;100.00;94661.81;5071710;28;20216;-59
2022/11/30 09:43:36;;;;;;;5.13;1.47;;;;;;;5.93;100.00;94681.41;5071660;28;20692;-64
2022/11/30 09:46:05;;;;;;;1.57;1.20;;;;;;;6.03;100.00;94679.88;5071152;28;20860;-65
2022/11/30 09:48:36;;;;;;;4.33;2.53;;;;;;;6.07;100.00;94690.56;5069063;28;20184;-63
2022/11/30 09:51:10;;;;;;;2.03;1.40;;;;;;;6.16;100.00;94687.44;5051925;28;20228;-64
2022/11/30 09:53:50;;;;;;;2.03;1.10;;;;;;;6.15;100.00;94706.81;5053391;28;20199;-65
2022/11/30 09:56:29;;;;;;;1.63;1.17;;;;;;;6.13;100.00;94697.72;5053632;28;20231;-63
2022/11/30 09:59:25;;;;;;;1.47;1.37;;;;;;;6.26;100.00;94698.53;5071656;28;20195;-64
2022/11/30 10:01:51;;;;;;;1.50;0.90;;;;;;;6.31;100.00;94689.72;5062578;28;20220;-64
2022/11/30 10:04:22;;;;;;;1.60;1.20;;;;;;;6.24;100.00;94685.22;5071358;28;20220;-61
2022/11/30 10:07:28;;;;;;;1.13;0.97;;;;;;;6.24;100.00;94680.94;5071351;28;20238;-64
2022/11/30 10:10:11;;;;;;;1.20;1.10;;;;;;;6.38;100.00;94688.41;5071422;28;20232;-64
2022/11/30 10:12:51;;;;;;;4.10;1.30;;;;;;;6.24;100.00;94665.81;5069467;28;20204;-60
2022/11/30 10:15:31;;;;;;;1.97;1.27;;;;;;;6.35;100.00;94682.75;5069384;28;20435;-64
2022/11/30 10:18:11;;;;;;;4.60;1.17;;;;;;;6.37;100.00;94681.75;5070096;28;20199;-64
2022/11/30 10:20:57;;;;;;;1.97;1.17;;;;;;;6.25;100.00;94690.16;5071446;28;20223;-64
2022/11/30 10:23:41;;;;;;;3.23;1.23;;;;;;;6.24;100.00;94665.81;5071126;28;20195;-64
2022/11/30 10:26:19;;;;;;;1.10;1.00;;;;;;;6.28;100.00;94671.47;5071298;28;20733;-60
2022/11/30 10:28:51;;;;;;;3.17;1.40;;;;;;;6.27;100.00;94660.56;5070134;28;20204;-66
2022/11/30 10:31:20;;;;;;;1.43;0.80;;;;;;;6.28;100.00;94659.63;5070898;28;20199;-65
2022/11/30 10:33:49;;;;;;;3.53;1.10;;;;;;;6.27;100.00;94652.19;5053069;28;20296;-64
2022/11/30 10:36:28;;;;;;;1.47;1.07;;;;;;;6.22;100.00;94644.91;5071225;28;20279;-65
2022/11/30 10:38:59;;;;;;;2.13;1.93;;;;;;;6.27;100.00;94645.41;5070969;28;20221;-63
2022/11/30 10:41:36;;;;;;;3.00;1.53;;;;;;;6.30;100.00;94646.94;5071211;28;20250;-61
2022/11/30 10:44:26;;;;;;;2.20;1.60;;;;;;;6.34;100.00;94669.31;5070877;28;20187;-59
2022/11/30 10:47:00;;;;;;;1.87;1.20;;;;;;;6.29;100.00;94646.13;5070684;28;20258;-60
2022/11/30 10:49:28;;;;;;;2.27;1.03;;;;;;;6.22;100.00;94646.66;5070642;28;20231;-65
2022/11/30 10:52:05;;;;;;;1.30;1.07;;;;;;;6.19;100.00;94632.50;5070526;28;20188;-64
2022/11/30 10:54:31;;;;;;;1.63;1.00;;;;;;;6.23;100.00;94638.97;5051920;28;20252;-64
2022/11/30 10:56:59;;;;;;;1.93;1.30;;;;;;;6.19;100.00;94636.75;5068947;28;20196;-63
2022/11/30 10:59:33;;;;;;;2.63;1.93;;;;;;;6.19;100.00;94627.47;5068277;28;20350;-65
2022/11/30 11:01:58;;;;;;;11.00;6.13;;;;;;;6.35;100.00;94628.03;5069685;28;20290;-64
2022/11/30 11:04:26;;;;;;;1.40;0.90;;;;;;;6.34;100.00;94630.66;5070516;28;20277;-64
2022/11/30 11:06:54;;;;;;;1.10;1.00;;;;;;;6.38;100.00;94627.81;5052551;28;20243;-63
2022/11/30 11:09:49;;;;;;;1.77;1.27;;;;;;;6.51;100.00;94643.72;5052600;28;20701;-59
2022/11/30 11:12:20;;;;;;;2.67;1.43;;;;;;;6.40;100.00;94640.34;5069503;28;20193;-61
2022/11/30 11:14:46;;;;;;;6.10;2.37;;;;;;;6.28;100.00;94619.25;5069164;28;20220;-63
2022/11/30 11:17:17;;;;;;;5.43;2.27;;;;;;;6.26;100.00;94618.53;5070331;28;20191;-64
2022/11/30 11:19:45;;;;;;;8.77;3.30;;;;;;;6.33;100.00;94617.22;5070015;28;20216;-63
2022/11/30 11:22:19;;;;;;;3.73;2.43;;;;;;;6.25;100.00;94611.09;5050165;28;20203;-64
2022/11/30 11:24:46;;;;;;;5.67;1.53;;;;;;;6.19;100.00;94612.31;5068566;28;20212;-64
2022/11/30 11:27:26;;;;;;;6.07;2.63;;;;;;;6.11;100.00;94604.47;5068699;28;20212;-65
2022/11/30 11:29:57;;;;;;;1.83;1.73;;;;;;;6.13;100.00;94609.41;5070361;28;20211;-60
2022/11/30 11:32:23;;;;;;;11.07;5.10;;;;;;;6.24;100.00;94625.41;5070153;28;20263;-65
2022/11/30 11:34:49;;;;;;;3.93;2.40;;;;;;;6.15;100.00;94610.91;5051849;28;20227;-64
2022/11/30 11:37:43;;;;;;;2.60;1.40;;;;;;;6.14;100.00;94621.91;5068802;28;20192;-65
2022/11/30 11:40:14;;;;;;;3.50;1.70;;;;;;;6.08;100.00;94608.94;5070125;28;20223;-60
2022/11/30 11:42:46;;;;;;;3.40;1.87;;;;;;;6.07;100.00;94615.69;5073306;28;20245;-65